• Join FlightAware (Why Join?)
  • Login
  • US Flag 
10:37PM EDT


 

Airport Tracker/Info


-or-


 

Live Flight TrackerFlight Track Log ✈ N280MK ✈ 31-Jul-2013 ✈ KPWC - KMKT

Flight Track Log - Related Links

Times and Time Zones

All times are in EDT time to prevent confusion due to time zone crossing. See the N280MK flight status page for this flight to view local times or setup timezone preferences in your user account.

Time Position Orientation Groundspeed Altitude Reporting Facility
EDT Latitude Longitude Course Direction KTS MPH feet Rate Location/Type
04:20PM 46.5931 -94.3717 173° South 102 117 4,300  Level Minneapolis Center
04:21PM 46.5675 -94.3667 172° South 99 114 4,700 300 Climbing Minneapolis Center
04:22PM 46.5361 -94.3533 164° South 97 112 5,000 120 Climbing Minneapolis Center
04:23PM 46.5100 -94.3394 160° South 97 112 5,000  Level Minneapolis Center
04:24PM 46.5357 -94.3453 172° South  Level Estimated
04:25PM 46.5042 -94.3387 172° South  Level FlightAware Approximate
04:25PM 46.4778 -94.3242 162° South 105 121 5,000  Level Minneapolis Center
04:26PM 46.4450 -94.3086 162° South 114 131 5,000  Level Minneapolis Center
04:27PM 46.4142 -94.2953 163° South 117 135 5,100  Climbing Minneapolis Center
04:28PM 46.3836 -94.2850 167° South 116 133 5,000 -60 Descending Minneapolis Center
04:29PM 46.3461 -94.2814 176° South 115 132 5,000  Level Minneapolis Center
04:30PM 46.3169 -94.2794 177° South 111 128 5,100  Climbing Minneapolis Center
04:31PM 46.2867 -94.2767 176° South 109 125 5,000 -60 Descending Minneapolis Center
04:32PM 46.2500 -94.2667 169° South 109 125 5,000  Level Minneapolis Center
04:33PM 46.2167 -94.2578 170° South 114 131 5,100  Climbing Minneapolis Center
04:34PM 46.1794 -94.2522 174° South 115 132 5,000  Descending Minneapolis Center
04:35PM 46.1481 -94.2456 172° South 114 131 5,100  Climbing Minneapolis Center
04:36PM 46.1164 -94.2417 175° South 114 131 5,000 -60 Descending Minneapolis Center
04:37PM 46.0825 -94.2353 173° South 117 135 5,000  Level Minneapolis Center
04:38PM 46.0511 -94.2314 175° South 115 132 5,000  Level Minneapolis Center
04:39PM 46.0189 -94.2244 171° South 117 135 5,000  Level Minneapolis Center
04:40PM 45.9822 -94.2178 173° South 112 129 5,000  Level Minneapolis Center
04:41PM 45.9514 -94.2139 175° South 113 130 5,000 -60 Level Minneapolis Center
04:42PM 45.9219 -94.2044 167° South 111 128 4,900 -120 Descending Minneapolis Center
04:43PM 45.8922 -94.1972 170° South 109 125 4,800  Descending Minneapolis Center
04:44PM 45.8603 -94.1939 176° South 111 128 4,900  Climbing Minneapolis Center
04:45PM 45.8289 -94.1897 175° South 112 129 4,900  Level Minneapolis Center
04:46PM 45.7911 -94.1797 170° South 114 131 4,900 -60 Level Minneapolis Center
04:47PM 45.7597 -94.1747 174° South 114 131 4,800 -60 Descending Minneapolis Center
04:49PM 45.7269 -94.1728 178° South 115 132 4,800  Level Minneapolis Center
04:50PM 45.6964 -94.1678 173° South 113 130 4,900 60 Climbing Minneapolis Center
04:51PM 45.6633 -94.1647 176° South 115 132 5,000  Climbing Minneapolis Center
04:52PM 45.6311 -94.1581 172° South 117 135 4,900 -60 Descending Minneapolis Center
04:53PM 45.5917 -94.1511 173° South 120 138 4,900 -60 Level Minneapolis Center
04:54PM 45.5633 -94.1597 192° South 107 123 4,800  Descending Minneapolis Center
04:55PM 45.5344 -94.1672 190° South 106 122 4,900  Climbing Minneapolis Center
04:56PM 45.5056 -94.1739 189° South 106 122 4,900  Level Minneapolis Center
04:57PM 45.4750 -94.1803 188° South 111 128 4,900  Level Minneapolis Center
04:58PM 45.4392 -94.1889 190° South 110 127 4,900  Level Minneapolis Center
04:59PM 45.4083 -94.1783 166° South 117 135 4,900 -60 Level Minneapolis Center
05:00PM 45.3761 -94.1750 176° South 116 133 4,800  Descending Minneapolis Center
05:01PM 45.3431 -94.1692 173° South 118 136 4,900  Climbing Minneapolis Center
05:02PM 45.3119 -94.1592 167° South 117 135 4,900  Level Minneapolis Center
05:03PM 45.2817 -94.1539 173° South 112 129 4,900  Level Minneapolis Center
05:04PM 45.2433 -94.1461 172° South 116 133 4,900  Level Minneapolis Center
05:05PM 45.2103 -94.1364 168° South 121 139 4,900  Level Minneapolis Center
05:06PM 45.1789 -94.1317 174° South 116 133 4,900  Level Minneapolis Center
05:07PM 45.1486 -94.1208 166° South 115 132 4,900  Level Minneapolis Center
05:08PM 45.1169 -94.1167 175° South 115 132 4,900  Level Minneapolis Center
05:09PM 45.0775 -94.1086 172° South 120 138 4,900  Level Minneapolis Center
05:10PM 45.0467 -94.1000 169° South 116 133 4,900  Level Minneapolis Center
05:11PM 45.0144 -94.0917 170° South 118 136 4,900  Level Minneapolis Center
05:12PM 44.9819 -94.0881 176° South 116 133 4,900  Level Minneapolis Center
05:13PM 44.9503 -94.0839 175° South 115 132 4,900  Level Minneapolis Center
05:14PM 44.9183 -94.0711 164° South 119 137 4,900  Level Minneapolis Center
05:15PM 44.8789 -94.0697 179° South 120 138 4,900 -60 Level Minneapolis Center
05:16PM 44.8478 -94.0578 165° South 118 136 4,800  Descending Minneapolis Center
05:17PM 44.8167 -94.0483 168° South 115 132 4,900  Climbing Minneapolis Center
05:19PM 44.7864 -94.0389 168° South 114 131 4,900  Level Minneapolis Center
05:20PM 44.7550 -94.0294 168° South 115 132 4,900  Level Minneapolis Center
05:21PM 44.7244 -94.0142 160° South 117 135 4,900  Level Minneapolis Center
05:22PM 44.6878 -93.9972 162° South 117 135 4,900  Level Minneapolis Center
05:23PM 44.6561 -93.9897 170° South 118 136 4,900 -60 Level Minneapolis Center
05:24PM 44.6236 -93.9803 168° South 120 138 4,800 -60 Descending Minneapolis Center
05:25PM 44.5931 -93.9742 172° South 113 130 4,800  Level Minneapolis Center
05:26PM 44.5608 -93.9678 172° South 116 133 4,900  Climbing Minneapolis Center
05:27PM 44.5231 -93.9594 171° South 115 132 4,900 -60 Level Minneapolis Center
05:28PM 44.4922 -93.9547 174° South 112 129 4,800 -60 Descending Minneapolis Center
05:29PM 44.4606 -93.9475 171° South 114 131 4,800  Level Minneapolis Center
05:30PM 44.4308 -93.9442 175° South 109 125 4,800  Level Minneapolis Center
05:31PM 44.3994 -93.9397 174° South 113 130 4,900  Climbing Minneapolis Center
05:32PM 44.3617 -93.9314 171° South 117 135 4,900  Level Minneapolis Center
05:33PM 44.3300 -93.9283 176° South 114 131 4,900  Level Minneapolis Center
05:34PM 44.2897 -93.9219 174° South 122 140 4,900 -360 Level Minneapolis Center
05:35PM 44.2589 -93.9186 176° South 113 130 4,200 -720 Descending Minneapolis Center
05:36PM 44.2261 -93.9131 173° South 117 135 3,500 -720 Descending Minneapolis Center